createdAt,value
2022-09-10T00:01:29.911Z,100251.66
2022-09-10T00:03:56.599Z,100254.69
2022-09-10T00:06:26.179Z,100262.31
2022-09-10T00:08:54.137Z,100268.41
2022-09-10T00:11:20.824Z,100265.34
2022-09-10T00:13:47.574Z,100252.41
2022-09-10T00:16:16.690Z,100257.75
2022-09-10T00:18:43.381Z,100257.00
2022-09-10T00:21:13.360Z,100255.88
2022-09-10T00:23:40.734Z,100255.84
2022-09-10T00:26:17.683Z,100256.22
2022-09-10T00:28:44.675Z,100256.22
2022-09-10T00:31:11.392Z,100251.28
2022-09-10T00:33:37.989Z,100251.28
2022-09-10T00:36:13.648Z,100254.31
2022-09-10T00:38:40.159Z,100253.56
2022-09-10T00:41:08.179Z,100259.25
2022-09-10T00:43:52.955Z,100246.31
2022-09-10T00:46:34.811Z,100255.84
2022-09-10T00:49:05.524Z,100248.63
2022-09-10T00:51:35.640Z,100245.53
2022-09-10T00:54:03.844Z,100248.59
2022-09-10T00:56:31.955Z,100244.03
2022-09-10T00:58:58.833Z,100247.81
2022-09-10T01:01:25.752Z,100249.38
2022-09-10T01:03:53.221Z,100251.66
2022-09-10T01:06:20.027Z,100256.22
2022-09-10T01:08:46.599Z,100258.53
2022-09-10T01:11:42.358Z,100251.28
2022-09-10T01:14:18.658Z,100255.06
2022-09-10T01:17:06.749Z,100253.97
2022-09-10T01:19:41.093Z,100252.41
2022-09-10T01:22:36.865Z,100256.22
2022-09-10T01:25:17.473Z,100251.28
2022-09-10T01:27:47.545Z,100257.38
2022-09-10T01:30:20.891Z,100252.81
2022-09-10T01:33:03.052Z,100253.94
2022-09-10T01:35:43.053Z,100255.84
2022-09-10T01:38:14.264Z,100255.09
2022-09-10T01:40:42.618Z,100253.94
2022-09-10T01:43:11.592Z,100257.38
2022-09-10T01:46:13.978Z,100258.16
2022-09-10T01:49:10.276Z,100252.81
2022-09-10T01:52:06.826Z,100256.22
2022-09-10T01:54:43.045Z,100252.03
2022-09-10T01:57:27.799Z,100249.75
2022-09-10T02:00:12.074Z,100252.81
2022-09-10T02:02:46.009Z,100255.47
2022-09-10T02:05:14.592Z,100244.03
2022-09-10T02:07:41.972Z,100248.63
2022-09-10T02:10:09.461Z,100236.03
2022-09-10T02:12:36.756Z,100234.88
2022-09-10T02:15:05.208Z,100227.63
2022-09-10T02:17:35.438Z,100232.56
2022-09-10T02:20:04.769Z,100227.97
2022-09-10T02:22:36.196Z,100225.31
2022-09-10T02:25:04.274Z,100228.72
2022-09-10T02:27:31.001Z,100230.66
2022-09-10T02:29:57.902Z,100232.16
2022-09-10T02:32:24.744Z,100224.16
2022-09-10T02:34:51.312Z,100230.28
2022-09-10T02:37:20.062Z,100235.22
2022-09-10T02:39:46.663Z,100231.44
2022-09-10T02:42:16.953Z,100237.94
2022-09-10T02:44:44.723Z,100231.81
2022-09-10T02:47:11.760Z,100236.41
2022-09-10T02:49:38.331Z,100234.47
2022-09-10T02:52:04.991Z,100232.97
2022-09-10T02:54:31.535Z,100225.34
2022-09-10T02:56:58.148Z,100216.94
2022-09-10T02:59:25.039Z,100218.09
2022-09-10T03:01:51.736Z,100217.34
2022-09-10T03:04:18.239Z,100213.91
2022-09-10T03:06:45.037Z,100207.41
2022-09-10T03:09:11.522Z,100217.69
2022-09-10T03:11:40.498Z,100213.13
2022-09-10T03:14:09.815Z,100208.16
2022-09-10T03:16:36.387Z,100211.97
2022-09-10T03:19:02.927Z,100221.16
2022-09-10T03:21:29.428Z,100223.44
2022-09-10T03:23:57.068Z,100231.44
2022-09-10T03:26:25.333Z,100223.78
2022-09-10T03:28:52.152Z,100226.81
2022-09-10T03:31:19.138Z,100227.63
2022-09-10T03:33:46.303Z,100223.03
2022-09-10T03:36:15.391Z,100225.72
2022-09-10T03:38:42.425Z,100225.31
2022-09-10T03:41:09.697Z,100218.44
2022-09-10T03:43:36.263Z,100219.59
2022-09-10T03:46:03.016Z,100219.97
2022-09-10T03:48:29.879Z,100219.22
2022-09-10T03:50:56.685Z,100224.56
2022-09-10T03:53:23.810Z,100218.44
2022-09-10T03:55:51.841Z,100222.63
2022-09-10T03:58:18.886Z,100225.69
2022-09-10T04:00:46.558Z,100219.19
2022-09-10T04:03:14.484Z,100229.53
2022-09-10T04:05:45.329Z,100226.44
2022-09-10T04:08:13.603Z,100231.03
2022-09-10T04:10:41.377Z,100227.19
2022-09-10T04:13:09.172Z,100230.25
2022-09-10T04:15:37.182Z,100228.72
2022-09-10T04:18:05.343Z,100226.44
2022-09-10T04:20:32.333Z,100225.66
2022-09-10T04:23:00.149Z,100214.22
2022-09-10T04:25:27.440Z,100219.94
2022-09-10T04:27:54.483Z,100226.78
2022-09-10T04:30:21.053Z,100225.66
2022-09-10T04:32:47.752Z,100217.69
2022-09-10T04:35:17.188Z,100229.47
2022-09-10T04:37:43.707Z,100216.13
2022-09-10T04:40:11.279Z,100216.13
2022-09-10T04:42:38.518Z,100219.19
2022-09-10T04:45:06.383Z,100222.63
2022-09-10T04:47:33.993Z,100227.56
2022-09-10T04:50:00.879Z,100223.78
2022-09-10T04:52:28.843Z,100222.63
2022-09-10T04:54:55.374Z,100223.41
2022-09-10T04:57:22.082Z,100226.44
2022-09-10T04:59:48.608Z,100226.78
2022-09-10T05:02:15.136Z,100224.50
2022-09-10T05:04:41.652Z,100225.69
2022-09-10T05:07:08.170Z,100225.69
2022-09-10T05:09:34.687Z,100221.84
2022-09-10T05:12:01.614Z,100229.84
2022-09-10T05:14:29.241Z,100226.44
2022-09-10T05:16:56.510Z,100214.94
2022-09-10T05:19:23.078Z,100221.44
2022-09-10T05:21:49.581Z,100222.97
2022-09-10T05:24:16.560Z,100225.63
2022-09-10T05:26:44.048Z,100229.84
2022-09-10T05:29:11.422Z,100226.38
2022-09-10T05:31:38.270Z,100226.41
2022-09-10T05:34:04.852Z,100229.47
2022-09-10T05:36:34.195Z,100234.09
2022-09-10T05:39:01.655Z,100234.81
2022-09-10T05:41:28.265Z,100231.78
2022-09-10T05:43:54.975Z,100221.88
2022-09-10T05:46:22.545Z,100228.75
2022-09-10T05:48:49.313Z,100226.09
2022-09-10T05:51:16.092Z,100224.94
2022-09-10T05:53:43.077Z,100236.38
2022-09-10T05:56:09.719Z,100226.81
2022-09-10T05:58:36.271Z,100230.25
2022-09-10T06:01:02.879Z,100231.03
2022-09-10T06:03:29.407Z,100232.94
2022-09-10T06:05:55.908Z,100228.38
2022-09-10T06:08:22.920Z,100231.03
2022-09-10T06:11:00.463Z,100230.66
2022-09-10T06:13:27.491Z,100229.50
2022-09-10T06:15:54.370Z,100237.94
2022-09-10T06:18:20.940Z,100240.19
2022-09-10T06:20:50.251Z,100230.25
2022-09-10T06:23:18.007Z,100231.03
2022-09-10T06:25:44.721Z,100228.69
2022-09-10T06:28:12.562Z,100238.22
2022-09-10T06:30:39.510Z,100231.38
2022-09-10T06:33:06.058Z,100245.47
2022-09-10T06:35:33.416Z,100238.59
2022-09-10T06:38:00.248Z,100234.03
2022-09-10T06:40:27.738Z,100244.34
2022-09-10T06:42:54.718Z,100243.94
2022-09-10T06:45:21.197Z,100244.31
2022-09-10T06:50:34.205Z,100249.31
2022-09-10T06:53:02.877Z,100255.81
2022-09-10T06:55:29.463Z,100260.41
2022-09-10T06:57:56.031Z,100258.50
2022-09-10T07:00:22.809Z,100252.03
2022-09-10T07:02:51.667Z,100255.06
2022-09-10T07:05:18.216Z,100260.81
2022-09-10T07:07:44.899Z,100271.47
2022-09-10T07:10:11.577Z,100267.66
2022-09-10T07:12:39.308Z,100262.72
2022-09-10T07:15:06.192Z,100260.41
2022-09-10T07:17:35.610Z,100263.84
2022-09-10T07:20:02.725Z,100264.59
2022-09-10T07:22:29.260Z,100275.31
2022-09-10T07:24:58.329Z,100267.31
2022-09-10T07:27:25.216Z,100280.66
2022-09-10T07:29:53.573Z,100278.00
2022-09-10T07:32:20.210Z,100277.59
2022-09-10T07:34:47.268Z,100281.03
2022-09-10T07:37:15.756Z,100273.00
2022-09-10T07:39:42.285Z,100274.53
2022-09-10T07:42:11.162Z,100283.69
2022-09-10T07:44:37.795Z,100287.47
2022-09-10T07:47:04.577Z,100286.00
2022-09-10T07:49:31.589Z,100295.53
2022-09-10T07:52:00.130Z,100299.34
2022-09-10T07:54:28.335Z,100301.22
2022-09-10T07:56:55.030Z,100300.50
2022-09-10T07:59:21.881Z,100302.78
2022-09-10T08:01:49.734Z,100297.84
2022-09-10T08:04:16.265Z,100296.69
2022-09-10T08:06:45.130Z,100305.09
2022-09-10T08:09:11.628Z,100303.56
2022-09-10T08:11:42.059Z,100305.84
2022-09-10T08:14:09.515Z,100308.78
2022-09-10T08:16:36.240Z,100298.88
2022-09-10T08:19:02.722Z,100307.72
2022-09-10T08:21:30.147Z,100313.38
2022-09-10T08:23:57.333Z,100309.63
2022-09-10T08:26:24.887Z,100308.44
2022-09-10T08:28:52.197Z,100314.38
2022-09-10T08:31:18.960Z,100313.63
2022-09-10T08:33:50.466Z,100314.03
2022-09-10T08:36:18.377Z,100314.72
2022-09-10T08:38:45.828Z,100324.25
2022-09-10T08:41:28.215Z,100322.34
2022-09-10T08:44:07.345Z,100317.50
2022-09-10T08:46:40.685Z,100317.13
2022-09-10T08:49:13.986Z,100312.47
2022-09-10T08:52:34.365Z,100322.03
2022-09-10T08:55:18.906Z,100319.00
2022-09-10T08:58:06.817Z,100333.16
2022-09-10T09:00:38.095Z,100330.13
2022-09-10T09:03:32.655Z,100334.28
2022-09-10T09:06:01.718Z,100333.94
2022-09-10T09:08:34.031Z,100329.75
2022-09-10T09:11:16.134Z,100321.72
2022-09-10T09:14:08.082Z,100322.44
2022-09-10T09:17:11.770Z,100314.09
2022-09-10T09:19:53.105Z,100322.09
2022-09-10T09:22:45.371Z,100322.53
2022-09-10T09:25:30.057Z,100317.63
2022-09-10T09:27:57.637Z,100317.22
2022-09-10T09:30:42.035Z,100312.63
2022-09-10T09:33:16.330Z,100314.53
2022-09-10T09:35:49.034Z,100316.03
2022-09-10T09:38:24.021Z,100314.88
2022-09-10T09:40:56.200Z,100314.84
2022-09-10T09:43:41.398Z,100304.75
2022-09-10T09:46:14.711Z,100309.25
2022-09-10T09:48:42.170Z,100305.03
2022-09-10T09:51:13.633Z,100302.88
2022-09-10T09:53:43.151Z,100304.00
2022-09-10T09:56:22.312Z,100313.91
2022-09-10T09:58:49.991Z,100305.78
2022-09-10T10:01:25.089Z,100303.91
2022-09-10T10:03:54.756Z,100322.81
2022-09-10T10:06:24.699Z,100312.50
2022-09-10T10:08:57.895Z,100310.13
2022-09-10T10:11:41.881Z,100320.81
2022-09-10T10:14:22.612Z,100310.47
2022-09-10T10:16:57.405Z,100312.78
2022-09-10T10:19:36.903Z,100305.94
2022-09-10T10:22:18.552Z,100310.88
2022-09-10T10:24:47.475Z,100302.97
2022-09-10T10:27:35.210Z,100311.72
2022-09-10T10:30:17.171Z,100316.31
2022-09-10T10:32:48.035Z,100304.88
2022-09-10T10:35:27.374Z,100306.75
2022-09-10T10:38:12.153Z,100309.06
2022-09-10T10:40:45.417Z,100311.34
2022-09-10T10:43:27.886Z,100307.97
2022-09-10T10:46:08.691Z,100319.94
2022-09-10T10:49:21.901Z,100316.06
2022-09-10T10:52:01.807Z,100315.94
2022-09-10T10:54:31.287Z,100320.31
2022-09-10T10:57:16.483Z,100315.66
2022-09-10T11:00:08.758Z,100313.78
2022-09-10T11:02:49.612Z,100315.88
2022-09-10T11:05:26.496Z,100313.56
2022-09-10T11:07:54.568Z,100306.16
2022-09-10T11:10:35.421Z,100306.13
2022-09-10T11:13:22.042Z,100300.97
2022-09-10T11:15:52.490Z,100299.75
2022-09-10T11:18:29.909Z,100298.66
2022-09-10T11:21:04.548Z,100289.97
2022-09-10T11:23:34.014Z,100296.44
2022-09-10T11:26:19.402Z,100292.91
2022-09-10T11:29:13.645Z,100285.16
2022-09-10T11:31:48.893Z,100290.34
2022-09-10T11:34:21.316Z,100280.75
2022-09-10T11:37:06.327Z,100277.28
2022-09-10T11:39:41.603Z,100279.41
2022-09-10T11:42:27.424Z,100276.78
2022-09-10T11:45:02.933Z,100283.19
2022-09-10T11:47:35.372Z,100278.81
2022-09-10T11:50:23.311Z,100273.63
2022-09-10T11:52:50.561Z,100273.50
2022-09-10T11:55:17.697Z,100270.00
2022-09-10T11:58:11.447Z,100260.09
2022-09-10T12:00:52.635Z,100271.31
2022-09-10T12:03:50.798Z,100268.81
2022-09-10T12:06:46.736Z,100272.38
2022-09-10T12:09:30.622Z,100264.00
2022-09-10T12:12:14.901Z,100267.53
2022-09-10T12:14:41.509Z,100266.72
2022-09-10T12:17:14.097Z,100267.31
2022-09-10T12:19:46.169Z,100264.25
2022-09-10T12:22:27.032Z,100269.63
2022-09-10T12:25:05.180Z,100266.47
2022-09-10T12:27:48.930Z,100269.66
2022-09-10T12:30:24.510Z,100266.94
2022-09-10T12:32:53.295Z,100255.34
2022-09-10T12:35:35.369Z,100259.63
2022-09-10T12:38:39.889Z,100260.00
2022-09-10T12:41:12.196Z,100255.88
2022-09-10T12:43:38.925Z,100249.50
2022-09-10T12:46:14.286Z,100251.72
2022-09-10T12:48:51.378Z,100251.53
2022-09-10T12:51:21.516Z,100251.47
2022-09-10T12:54:21.810Z,100249.69
2022-09-10T12:56:57.955Z,100245.75
2022-09-10T12:59:33.523Z,100245.41
2022-09-10T13:02:00.627Z,100242.97
2022-09-10T13:04:36.943Z,100245.56
2022-09-10T13:07:25.648Z,100244.97
2022-09-10T13:10:02.320Z,100244.56
2022-09-10T13:12:32.651Z,100246.22
2022-09-10T13:15:02.516Z,100237.56
2022-09-10T13:17:47.230Z,100240.44
2022-09-10T13:20:19.935Z,100234.66
2022-09-10T13:23:03.831Z,100244.44
2022-09-10T13:25:42.670Z,100240.09
2022-09-10T13:28:31.276Z,100237.72
2022-09-10T13:31:14.136Z,100249.59
2022-09-10T13:34:04.406Z,100238.81
2022-09-10T13:36:49.596Z,100236.66
2022-09-10T13:39:34.864Z,100246.13
2022-09-10T13:42:43.819Z,100230.66
2022-09-10T13:45:27.185Z,100228.38
2022-09-10T13:48:12.881Z,100222.72
2022-09-10T13:50:52.572Z,100219.00
2022-09-10T13:53:20.561Z,100210.69
2022-09-10T13:55:55.538Z,100210.63
2022-09-10T13:58:28.349Z,100213.56
2022-09-10T14:00:58.374Z,100200.91
2022-09-10T14:03:33.484Z,100201.56
2022-09-10T14:06:04.092Z,100190.78
2022-09-10T14:08:44.896Z,100194.38
2022-09-10T14:11:22.189Z,100198.13
2022-09-10T14:13:55.558Z,100188.97
2022-09-10T14:16:29.933Z,100192.41
2022-09-10T14:19:01.880Z,100197.31
2022-09-10T14:21:29.290Z,100192.59
2022-09-10T14:23:58.890Z,100200.41
2022-09-10T14:26:31.268Z,100197.72
2022-09-10T14:29:24.550Z,100198.31
2022-09-10T14:31:51.287Z,100203.88
2022-09-10T14:34:32.346Z,100203.41
2022-09-10T14:37:38.939Z,100202.00
2022-09-10T14:40:17.774Z,100202.38
2022-09-10T14:42:45.840Z,100195.41
2022-09-10T14:45:41.589Z,100191.44
2022-09-10T14:48:38.497Z,100180.84
2022-09-10T14:51:12.098Z,100184.72
2022-09-10T14:53:39.611Z,100185.47
2022-09-10T14:56:19.105Z,100189.09
2022-09-10T14:58:46.027Z,100186.66
2022-09-10T15:01:12.624Z,100186.53
2022-09-10T15:03:40.614Z,100188.06
2022-09-10T15:06:08.933Z,100190.59
2022-09-10T15:08:35.432Z,100199.47
2022-09-10T15:11:02.075Z,100213.13
2022-09-10T15:13:28.878Z,100220.72
2022-09-10T15:15:55.897Z,100239.09
2022-09-10T15:18:22.613Z,100246.84
2022-09-10T15:20:50.417Z,100254.66
2022-09-10T15:23:18.193Z,100255.81
2022-09-10T15:25:50.481Z,100260.06
2022-09-10T15:28:17.013Z,100259.59
2022-09-10T15:30:43.776Z,100247.97
2022-09-10T15:33:14.547Z,100255.19
2022-09-10T15:35:41.546Z,100254.31
2022-09-10T15:38:14.452Z,100242.38
2022-09-10T15:40:41.078Z,100258.81
2022-09-10T15:43:07.801Z,100263.06
2022-09-10T15:45:35.611Z,100262.84
2022-09-10T15:48:06.961Z,100259.81
2022-09-10T15:50:33.618Z,100254.44
2022-09-10T15:53:00.085Z,100247.88
2022-09-10T15:55:27.596Z,100256.56
2022-09-10T15:57:54.153Z,100255.50
2022-09-10T16:00:20.848Z,100259.53
2022-09-10T16:02:51.751Z,100256.44
2022-09-10T16:05:19.211Z,100251.88
2022-09-10T16:07:47.651Z,100241.13
2022-09-10T16:10:15.421Z,100242.72
2022-09-10T16:12:42.665Z,100243.47
2022-09-10T16:15:09.668Z,100236.47
2022-09-10T16:17:36.170Z,100239.50
2022-09-10T16:20:02.806Z,100244.00
2022-09-10T16:22:30.677Z,100242.22
2022-09-10T16:24:57.200Z,100253.19
2022-09-10T16:27:24.021Z,100251.94
2022-09-10T16:29:50.573Z,100254.19
2022-09-10T16:32:17.093Z,100252.41
2022-09-10T16:34:43.625Z,100250.59
2022-09-10T16:37:10.127Z,100266.66
2022-09-10T16:39:36.705Z,100265.91
2022-09-10T16:42:03.440Z,100272.72
2022-09-10T16:44:31.364Z,100283.91
2022-09-10T16:46:59.287Z,100285.75
2022-09-10T16:49:27.349Z,100293.34
2022-09-10T16:51:54.284Z,100296.47
2022-09-10T16:54:21.270Z,100301.09
2022-09-10T16:56:48.698Z,100305.75
2022-09-10T16:59:21.280Z,100301.06
2022-09-10T17:01:49.447Z,100293.53
2022-09-10T17:04:21.308Z,100299.94
2022-09-10T17:06:48.950Z,100296.50
2022-09-10T17:09:15.616Z,100298.81
2022-09-10T17:11:42.306Z,100302.59
2022-09-10T17:14:08.853Z,100302.97
2022-09-10T17:16:40.367Z,100298.75
2022-09-10T17:19:20.106Z,100288.50
2022-09-10T17:21:50.898Z,100287.78
2022-09-10T17:24:19.114Z,100288.19
2022-09-10T17:26:46.052Z,100291.22
2022-09-10T17:29:15.559Z,100298.03
2022-09-10T17:31:42.721Z,100293.50
2022-09-10T17:34:13.726Z,100288.59
2022-09-10T17:36:45.223Z,100289.34
2022-09-10T17:39:12.617Z,100288.19
2022-09-10T17:41:39.801Z,100285.84
2022-09-10T17:44:07.885Z,100283.59
2022-09-10T17:46:35.351Z,100284.34
2022-09-10T17:49:02.354Z,100285.44
2022-09-10T17:51:31.468Z,100289.22
2022-09-10T17:53:58.177Z,100287.72
2022-09-10T17:56:26.898Z,100289.94
2022-09-10T17:58:58.346Z,100284.63
2022-09-10T18:01:27.708Z,100287.66
2022-09-10T18:03:54.746Z,100280.41
2022-09-10T18:06:22.082Z,100285.75
2022-09-10T18:08:50.033Z,100290.34
2022-09-10T18:11:28.148Z,100289.97
2022-09-10T18:13:57.095Z,100281.16
2022-09-10T18:16:26.642Z,100291.88
2022-09-10T18:18:56.039Z,100287.31
2022-09-10T18:21:25.814Z,100281.56
2022-09-10T18:24:00.102Z,100281.25
2022-09-10T18:26:29.170Z,100296.50
2022-09-10T18:29:20.698Z,100297.28
2022-09-10T18:31:53.109Z,100300.38
2022-09-10T18:34:24.039Z,100303.44
2022-09-10T18:36:54.280Z,100298.06
2022-09-10T18:39:22.253Z,100304.16
2022-09-10T18:41:48.787Z,100300.34
2022-09-10T18:44:18.486Z,100307.56
2022-09-10T18:46:46.753Z,100315.63
2022-09-10T18:49:19.098Z,100315.66
2022-09-10T18:51:47.664Z,100310.31
2022-09-10T18:54:16.095Z,100314.47
2022-09-10T18:56:44.762Z,100316.81
2022-09-10T18:59:13.069Z,100317.16
2022-09-10T19:01:43.511Z,100328.66
2022-09-10T19:04:12.868Z,100323.28
2022-09-10T19:06:42.289Z,100314.97
2022-09-10T19:09:12.925Z,100314.16
2022-09-10T19:11:44.745Z,100312.63
2022-09-10T19:14:14.214Z,100315.69
2022-09-10T19:16:41.322Z,100318.69
2022-09-10T19:19:08.298Z,100314.13
2022-09-10T19:21:38.290Z,100310.69
2022-09-10T19:24:04.745Z,100312.19
2022-09-10T19:26:33.899Z,100315.63
2022-09-10T19:29:01.063Z,100318.28
2022-09-10T19:31:28.580Z,100323.25
2022-09-10T19:33:56.389Z,100322.13
2022-09-10T19:36:22.823Z,100325.59
2022-09-10T19:38:49.512Z,100328.25
2022-09-10T19:41:19.746Z,100332.47
2022-09-10T19:43:47.245Z,100327.53
2022-09-10T19:46:15.285Z,100330.97
2022-09-10T19:48:43.453Z,100327.13
2022-09-10T19:51:15.525Z,100335.19
2022-09-10T19:53:42.717Z,100337.88
2022-09-10T19:56:20.658Z,100329.47
2022-09-10T19:58:50.517Z,100340.94
2022-09-10T20:01:23.526Z,100344.00
2022-09-10T20:03:50.898Z,100343.59
2022-09-10T20:06:20.217Z,100347.41
2022-09-10T20:08:50.404Z,100356.19
2022-09-10T20:11:26.615Z,100357.72
2022-09-10T20:13:54.183Z,100352.38
2022-09-10T20:16:20.971Z,100360.41
2022-09-10T20:18:47.513Z,100350.44
2022-09-10T20:21:16.021Z,100355.41
2022-09-10T20:23:44.596Z,100350.03
2022-09-10T20:26:28.746Z,100345.88
2022-09-10T20:29:00.844Z,100357.72
2022-09-10T20:31:29.662Z,100354.31
2022-09-10T20:33:58.387Z,100354.66
2022-09-10T20:36:26.387Z,100362.31
2022-09-10T20:38:54.240Z,100357.34
2022-09-10T20:41:23.205Z,100360.78
2022-09-10T20:43:53.498Z,100366.88
2022-09-10T20:46:22.277Z,100369.19
2022-09-10T20:48:51.451Z,100363.09
2022-09-10T20:51:19.728Z,100369.94
2022-09-10T20:53:47.005Z,100368.81
2022-09-10T20:56:18.575Z,100370.75
2022-09-10T20:58:46.194Z,100366.16
2022-09-10T21:01:21.358Z,100368.81
2022-09-10T21:03:49.299Z,100368.47
2022-09-10T21:06:20.944Z,100366.94
2022-09-10T21:08:47.877Z,100366.19
2022-09-10T21:11:16.902Z,100357.75
2022-09-10T21:13:54.397Z,100353.94
2022-09-10T21:16:24.888Z,100357.78
2022-09-10T21:18:55.062Z,100360.06
2022-09-10T21:21:25.631Z,100357.78
2022-09-10T21:23:54.793Z,100353.59
2022-09-10T21:26:33.103Z,100353.19
2022-09-10T21:29:04.046Z,100348.97
2022-09-10T21:31:31.244Z,100352.44
2022-09-10T21:34:02.742Z,100352.41
2022-09-10T21:36:31.042Z,100355.47
2022-09-10T21:38:59.973Z,100350.88
2022-09-10T21:41:33.466Z,100356.59
2022-09-10T21:44:02.902Z,100357.38
2022-09-10T21:46:29.978Z,100363.09
2022-09-10T21:48:56.840Z,100362.34
2022-09-10T21:51:24.279Z,100359.25
2022-09-10T21:53:57.822Z,100359.25
2022-09-10T21:56:27.395Z,100365.75
2022-09-10T21:58:54.468Z,100360.41
2022-09-10T22:01:24.207Z,100358.94
2022-09-10T22:03:53.362Z,100366.16
2022-09-10T22:06:23.025Z,100368.06
2022-09-10T22:08:58.473Z,100369.97
2022-09-10T22:11:31.982Z,100363.88
2022-09-10T22:14:07.460Z,100373.00
2022-09-10T22:16:35.093Z,100368.44
2022-09-10T22:19:05.668Z,100366.16
2022-09-10T22:21:32.532Z,100376.06
2022-09-10T22:23:59.317Z,100370.38
2022-09-10T22:26:28.140Z,100380.66
2022-09-10T22:28:56.653Z,100376.09
2022-09-10T22:31:24.904Z,100369.59
2022-09-10T22:33:57.484Z,100376.09
2022-09-10T22:36:26.594Z,100379.16
2022-09-10T22:38:56.127Z,100382.94
2022-09-10T22:41:23.102Z,100384.47
2022-09-10T22:43:50.352Z,100394.03
2022-09-10T22:46:17.760Z,100388.72
2022-09-10T22:48:45.461Z,100386.41
2022-09-10T22:51:17.857Z,100389.84
2022-09-10T22:53:45.419Z,100395.94
2022-09-10T22:56:17.595Z,100400.13
2022-09-10T22:58:45.896Z,100395.94
2022-09-10T23:01:15.180Z,100396.72
2022-09-10T23:03:43.098Z,100399.00
2022-09-10T23:06:12.784Z,100399.00
2022-09-10T23:08:40.066Z,100400.16
2022-09-10T23:11:15.462Z,100403.97
2022-09-10T23:13:43.777Z,100398.63
2022-09-10T23:16:21.926Z,100400.53
2022-09-10T23:18:50.793Z,100411.59
2022-09-10T23:21:18.415Z,100414.66
2022-09-10T23:23:47.070Z,100416.19
2022-09-10T23:26:14.453Z,100408.94
2022-09-10T23:28:44.114Z,100415.44
2022-09-10T23:31:27.646Z,100426.50
2022-09-10T23:33:57.202Z,100420.75
2022-09-10T23:36:25.339Z,100434.91
2022-09-10T23:38:52.020Z,100428.78
2022-09-10T23:41:18.599Z,100423.44
2022-09-10T23:43:45.395Z,100429.53
2022-09-10T23:46:13.069Z,100434.16
2022-09-10T23:48:42.181Z,100441.03
2022-09-10T23:51:11.946Z,100434.16
2022-09-10T23:53:39.492Z,100432.66
2022-09-10T23:56:06.616Z,100438.00
2022-09-10T23:58:33.198Z,100429.97
